createdAt,value
2023-03-26T00:00:09.634Z,99455.34
2023-03-26T00:01:17.875Z,99462.69
2023-03-26T00:02:20.097Z,99461.13
2023-03-26T00:03:22.495Z,99462.06
2023-03-26T00:04:25.546Z,99464.25
2023-03-26T00:05:28.007Z,99465.25
2023-03-26T00:06:37.750Z,99474.75
2023-03-26T00:07:40.499Z,99464.59
2023-03-26T00:08:45.133Z,99474.59
2023-03-26T00:09:47.760Z,99470.72
2023-03-26T00:10:50.357Z,99465.53
2023-03-26T00:11:52.794Z,99469.75
2023-03-26T00:12:56.137Z,99461.94
2023-03-26T00:13:58.365Z,99464.06
2023-03-26T00:15:00.643Z,99469.94
2023-03-26T00:16:03.729Z,99476.16
2023-03-26T00:17:06.150Z,99466.50
2023-03-26T00:18:09.322Z,99469.31
2023-03-26T00:19:12.671Z,99470.09
2023-03-26T00:20:14.878Z,99477.44
2023-03-26T00:21:22.588Z,99473.56
2023-03-26T00:22:25.338Z,99475.88
2023-03-26T00:23:28.835Z,99470.72
2023-03-26T00:24:31.017Z,99478.47
2023-03-26T00:25:34.849Z,99476.16
2023-03-26T00:26:41.011Z,99476.19
2023-03-26T00:27:45.812Z,99477.69
2023-03-26T00:28:50.824Z,99471.75
2023-03-26T00:29:56.288Z,99472.59
2023-03-26T00:31:04.586Z,99467.41
2023-03-26T00:32:06.805Z,99476.75
2023-03-26T00:33:12.055Z,99470.63
2023-03-26T00:34:18.504Z,99466.41
2023-03-26T00:35:22.467Z,99470.78
2023-03-26T00:36:26.731Z,99474.56
2023-03-26T00:37:30.350Z,99475.34
2023-03-26T00:38:38.701Z,99470.53
2023-03-26T00:39:42.799Z,99472.59
2023-03-26T00:40:48.120Z,99470.72
2023-03-26T00:41:54.155Z,99474.66
2023-03-26T00:42:56.800Z,99463.78
2023-03-26T00:44:00.225Z,99474.72
2023-03-26T00:45:02.446Z,99475.34
2023-03-26T00:46:06.338Z,99472.09
2023-03-26T00:47:08.798Z,99465.88
2023-03-26T00:48:11.663Z,99466.47
2023-03-26T00:49:17.910Z,99466.91
2023-03-26T00:50:20.582Z,99477.09
2023-03-26T00:51:23.583Z,99467.13
2023-03-26T00:52:28.645Z,99475.53
2023-03-26T00:53:31.989Z,99477.38
2023-03-26T00:54:35.390Z,99471.81
2023-03-26T00:55:38.762Z,99472.59
2023-03-26T00:56:41.180Z,99475.03
2023-03-26T00:57:45.996Z,99481.00
2023-03-26T00:58:50.191Z,99473.78
2023-03-26T00:59:52.933Z,99476.50
2023-03-26T01:00:58.898Z,99475.88
2023-03-26T01:02:01.608Z,99476.06
2023-03-26T01:03:05.681Z,99472.69
2023-03-26T01:04:28.157Z,99481.72
2023-03-26T01:05:34.526Z,99479.06
2023-03-26T01:06:41.935Z,99483.38
2023-03-26T01:07:44.773Z,99472.59
2023-03-26T01:08:49.421Z,99485.25
2023-03-26T01:09:51.717Z,99482.91
2023-03-26T01:11:02.980Z,99478.50
2023-03-26T01:12:08.872Z,99479.41
2023-03-26T01:13:12.292Z,99478.44
2023-03-26T01:14:24.742Z,99478.38
2023-03-26T01:15:30.168Z,99483.56
2023-03-26T01:16:46.453Z,99486.63
2023-03-26T01:17:51.946Z,99484.63
2023-03-26T01:18:58.685Z,99478.59
2023-03-26T01:20:16.460Z,99484.41
2023-03-26T01:21:28.777Z,99475.19
2023-03-26T01:22:31.259Z,99485.72
2023-03-26T01:23:49.196Z,99478.66
2023-03-26T01:24:56.620Z,99482.88
2023-03-26T01:26:28.909Z,99484.47
2023-03-26T01:27:40.927Z,99486.41
2023-03-26T01:28:43.508Z,99477.25
2023-03-26T01:29:48.919Z,99477.25
2023-03-26T01:31:06.289Z,99488.91
2023-03-26T01:32:19.023Z,99486.69
2023-03-26T01:33:30.028Z,99483.31
2023-03-26T01:34:50.845Z,99482.22
2023-03-26T01:36:11.506Z,99492.28
2023-03-26T01:37:32.634Z,99488.72
2023-03-26T01:38:46.863Z,99492.28
2023-03-26T01:39:57.231Z,99493.69
2023-03-26T01:41:26.976Z,99488.91
2023-03-26T01:42:46.756Z,99494.06
2023-03-26T01:44:03.031Z,99494.97
2023-03-26T01:45:22.795Z,99496.69
2023-03-26T01:46:27.416Z,99490.06
2023-03-26T01:47:32.392Z,99491.31
2023-03-26T01:48:39.850Z,99491.31
2023-03-26T01:49:42.058Z,99494.72
2023-03-26T01:50:44.890Z,99495.19
2023-03-26T01:51:47.746Z,99488.91
2023-03-26T01:52:50.127Z,99490.63
2023-03-26T01:53:53.673Z,99494.06
2023-03-26T01:54:56.753Z,99498.94
2023-03-26T01:56:17.727Z,99493.84
2023-03-26T01:57:39.651Z,99504.75
2023-03-26T01:58:58.431Z,99503.31
2023-03-26T02:00:18.632Z,99506.25
2023-03-26T02:01:34.103Z,99501.94
2023-03-26T02:03:01.655Z,99496.28
2023-03-26T02:04:30.699Z,99504.88
2023-03-26T02:05:44.083Z,99501.16
2023-03-26T02:06:52.754Z,99498.44
2023-03-26T02:08:13.529Z,99500.31
2023-03-26T02:09:22.412Z,99500.69
2023-03-26T02:10:35.074Z,99506.19
2023-03-26T02:11:39.806Z,99498.03
2023-03-26T02:12:44.496Z,99502.28
2023-03-26T02:13:47.422Z,99497.09
2023-03-26T02:14:51.760Z,99498.09
2023-03-26T02:16:03.569Z,99492.84
2023-03-26T02:17:06.056Z,99499.38
2023-03-26T02:18:11.049Z,99489.63
2023-03-26T02:19:16.094Z,99499.91
2023-03-26T02:20:20.823Z,99497.25
2023-03-26T02:21:26.211Z,99497.66
2023-03-26T02:22:29.937Z,99491.59
2023-03-26T02:23:36.034Z,99492.38
2023-03-26T02:24:38.853Z,99488.91
2023-03-26T02:25:43.828Z,99491.97
2023-03-26T02:26:46.636Z,99490.22
2023-03-26T02:27:51.695Z,99491.72
2023-03-26T02:28:54.123Z,99489.94
2023-03-26T02:29:56.353Z,99493.53
2023-03-26T02:31:01.646Z,99493.47
2023-03-26T02:32:06.528Z,99489.84
2023-03-26T02:33:08.792Z,99485.69
2023-03-26T02:34:16.977Z,99488.19
2023-03-26T02:35:26.672Z,99493.22
2023-03-26T02:36:36.215Z,99488.84
2023-03-26T02:37:40.075Z,99490.94
2023-03-26T02:38:54.524Z,99493.47
2023-03-26T02:39:57.236Z,99504.69
2023-03-26T02:41:06.272Z,99500.38
2023-03-26T02:42:27.583Z,99490.56
2023-03-26T02:43:29.973Z,99485.00
2023-03-26T02:44:32.737Z,99494.72
2023-03-26T02:45:35.112Z,99502.72
2023-03-26T02:46:40.046Z,99496.94
2023-03-26T02:48:02.571Z,99495.22
2023-03-26T02:49:23.629Z,99489.09
2023-03-26T02:50:26.422Z,99491.81
2023-03-26T02:51:56.285Z,99488.91
2023-03-26T02:53:02.136Z,99486.88
2023-03-26T02:54:07.971Z,99490.28
2023-03-26T02:55:27.410Z,99493.63
2023-03-26T02:56:33.000Z,99491.44
2023-03-26T02:58:07.699Z,99497.50
2023-03-26T02:59:13.804Z,99497.38
2023-03-26T03:00:22.223Z,99490.91
2023-03-26T03:01:24.580Z,99494.81
2023-03-26T03:02:29.897Z,99493.63
2023-03-26T03:03:40.071Z,99493.31
2023-03-26T03:05:06.125Z,99497.31
2023-03-26T03:06:10.299Z,99499.06
2023-03-26T03:07:20.351Z,99497.38
2023-03-26T03:08:26.367Z,99500.31
2023-03-26T03:09:51.749Z,99506.19
2023-03-26T03:11:26.884Z,99502.91
2023-03-26T03:12:29.781Z,99500.22
2023-03-26T03:13:32.159Z,99495.94
2023-03-26T03:14:35.638Z,99488.78
2023-03-26T03:15:37.794Z,99495.75
2023-03-26T03:16:41.392Z,99497.25
2023-03-26T03:17:46.838Z,99494.97
2023-03-26T03:18:57.869Z,99496.69
2023-03-26T03:20:12.061Z,99485.84
2023-03-26T03:21:14.846Z,99498.66
2023-03-26T03:22:17.261Z,99502.56
2023-03-26T03:23:22.865Z,99501.72
2023-03-26T03:24:33.768Z,99502.50
2023-03-26T03:25:38.202Z,99501.47
2023-03-26T03:26:42.390Z,99504.53
2023-03-26T03:28:05.514Z,99495.50
2023-03-26T03:29:09.334Z,99510.53
2023-03-26T03:30:13.873Z,99498.69
2023-03-26T03:31:21.872Z,99509.44
2023-03-26T03:32:25.072Z,99501.41
2023-03-26T03:33:30.687Z,99513.75
2023-03-26T03:34:32.866Z,99512.31
2023-03-26T03:35:35.593Z,99510.53
2023-03-26T03:36:38.578Z,99507.78
2023-03-26T03:38:00.481Z,99510.59
2023-03-26T03:39:05.305Z,99508.84
2023-03-26T03:40:10.934Z,99511.47
2023-03-26T03:41:14.575Z,99519.53
2023-03-26T03:42:18.886Z,99511.53
2023-03-26T03:43:22.031Z,99513.59
2023-03-26T03:44:38.098Z,99514.91
2023-03-26T03:45:48.646Z,99515.81
2023-03-26T03:47:04.261Z,99517.22
2023-03-26T03:48:06.688Z,99520.91
2023-03-26T03:49:15.517Z,99524.94
2023-03-26T03:50:17.897Z,99519.38
2023-03-26T03:51:35.229Z,99519.28
2023-03-26T03:52:40.569Z,99526.44
2023-03-26T03:53:43.244Z,99517.25
2023-03-26T03:54:46.532Z,99512.72
2023-03-26T03:56:10.537Z,99516.31
2023-03-26T03:57:36.136Z,99509.09
2023-03-26T03:58:42.413Z,99525.28
2023-03-26T03:59:50.150Z,99516.63
2023-03-26T04:01:00.727Z,99514.66
2023-03-26T04:02:43.047Z,99526.19
2023-03-26T04:03:47.012Z,99516.72
2023-03-26T04:04:52.065Z,99519.44
2023-03-26T04:05:56.846Z,99516.78
2023-03-26T04:07:02.771Z,99517.56
2023-03-26T04:08:12.356Z,99514.78
2023-03-26T04:09:23.964Z,99514.88
2023-03-26T04:10:27.809Z,99511.53
2023-03-26T04:12:01.770Z,99514.22
2023-03-26T04:13:20.860Z,99518.63
2023-03-26T04:15:01.824Z,99519.53
2023-03-26T04:16:05.449Z,99513.41
2023-03-26T04:17:07.903Z,99510.75
2023-03-26T04:18:13.229Z,99513.81
2023-03-26T04:19:18.673Z,99513.94
2023-03-26T04:20:21.120Z,99510.56
2023-03-26T04:21:26.297Z,99502.13
2023-03-26T04:22:34.580Z,99511.03
2023-03-26T04:23:39.726Z,99508.06
2023-03-26T04:24:54.363Z,99508.91
2023-03-26T04:26:20.062Z,99505.38
2023-03-26T04:27:58.463Z,99500.13
2023-03-26T04:29:24.385Z,99506.53
2023-03-26T04:30:27.583Z,99506.19
2023-03-26T04:31:38.340Z,99511.34
2023-03-26T04:32:43.081Z,99513.03
2023-03-26T04:33:47.337Z,99514.25
2023-03-26T04:34:52.716Z,99510.00
2023-03-26T04:36:02.644Z,99507.63
2023-03-26T04:37:07.186Z,99512.00
2023-03-26T04:38:17.549Z,99503.88
2023-03-26T04:39:23.113Z,99508.50
2023-03-26T04:40:47.539Z,99506.78
2023-03-26T04:41:49.868Z,99502.44
2023-03-26T04:42:54.588Z,99498.84
2023-03-26T04:44:09.697Z,99504.72
2023-03-26T04:45:17.749Z,99507.47
2023-03-26T04:46:23.470Z,99514.97
2023-03-26T04:47:39.211Z,99508.00
2023-03-26T04:48:42.470Z,99507.41
2023-03-26T04:49:46.341Z,99510.00
2023-03-26T04:50:50.797Z,99509.94
2023-03-26T04:51:55.671Z,99510.38
2023-03-26T04:53:21.346Z,99503.44
2023-03-26T04:54:56.741Z,99504.59
2023-03-26T04:56:13.300Z,99506.63
2023-03-26T04:57:46.448Z,99502.00
2023-03-26T04:59:13.725Z,99505.19
2023-03-26T05:00:21.379Z,99508.81
2023-03-26T05:01:28.819Z,99510.38
2023-03-26T05:02:32.711Z,99511.97
2023-03-26T05:03:39.106Z,99503.88
2023-03-26T05:04:48.454Z,99503.00
2023-03-26T05:05:51.479Z,99515.25
2023-03-26T05:06:54.237Z,99513.38
2023-03-26T05:08:08.534Z,99510.88
2023-03-26T05:09:11.591Z,99519.19
2023-03-26T05:10:32.315Z,99510.09
2023-03-26T05:11:40.418Z,99508.91
2023-03-26T05:12:43.331Z,99517.56
2023-03-26T05:13:51.076Z,99509.28
2023-03-26T05:14:54.035Z,99512.00
2023-03-26T05:16:07.269Z,99524.78
2023-03-26T05:17:18.808Z,99524.50
2023-03-26T05:18:22.763Z,99520.75
2023-03-26T05:19:27.890Z,99522.31
2023-03-26T05:20:31.150Z,99519.34
2023-03-26T05:21:33.363Z,99519.16
2023-03-26T05:22:38.132Z,99523.09
2023-03-26T05:23:54.036Z,99524.75
2023-03-26T05:24:57.938Z,99524.09
2023-03-26T05:26:00.271Z,99528.38
2023-03-26T05:27:02.585Z,99529.28
2023-03-26T05:28:10.859Z,99532.63
2023-03-26T05:29:29.144Z,99527.72
2023-03-26T05:30:31.550Z,99523.22
2023-03-26T05:31:36.179Z,99524.25
2023-03-26T05:32:39.291Z,99532.88
2023-03-26T05:33:42.677Z,99529.28
2023-03-26T05:34:47.687Z,99534.50
2023-03-26T05:36:17.590Z,99535.41
2023-03-26T05:37:25.705Z,99525.06
2023-03-26T05:38:37.425Z,99530.44
2023-03-26T05:39:43.877Z,99534.44
2023-03-26T05:41:12.115Z,99528.50
2023-03-26T05:42:17.527Z,99539.13
2023-03-26T05:43:47.708Z,99538.03
2023-03-26T05:44:56.894Z,99531.72
2023-03-26T05:46:03.682Z,99533.41
2023-03-26T05:47:07.662Z,99538.94
2023-03-26T05:48:09.980Z,99536.69
2023-03-26T05:49:12.334Z,99539.06
2023-03-26T05:50:15.595Z,99537.56
2023-03-26T05:51:18.967Z,99532.94
2023-03-26T05:52:33.239Z,99533.53
2023-03-26T05:53:53.711Z,99534.63
2023-03-26T05:55:14.838Z,99535.91
2023-03-26T05:56:37.362Z,99541.00
2023-03-26T05:58:08.865Z,99542.69
2023-03-26T05:59:26.283Z,99537.03
2023-03-26T06:00:48.955Z,99533.34
2023-03-26T06:02:01.105Z,99542.06
2023-03-26T06:03:26.823Z,99550.56
2023-03-26T06:04:42.819Z,99537.16
2023-03-26T06:06:06.681Z,99537.56
2023-03-26T06:07:21.006Z,99540.53
2023-03-26T06:08:35.978Z,99544.44
2023-03-26T06:09:40.060Z,99537.69
2023-03-26T06:10:44.054Z,99545.63
2023-03-26T06:11:46.309Z,99541.88
2023-03-26T06:12:49.673Z,99541.16
2023-03-26T06:13:52.758Z,99549.09
2023-03-26T06:14:54.947Z,99545.56
2023-03-26T06:16:26.217Z,99544.88
2023-03-26T06:18:05.896Z,99544.63
2023-03-26T06:19:08.182Z,99544.75
2023-03-26T06:20:30.901Z,99552.94
2023-03-26T06:21:33.864Z,99548.94
2023-03-26T06:22:45.954Z,99542.34
2023-03-26T06:23:56.880Z,99547.75
2023-03-26T06:25:18.860Z,99550.03
2023-03-26T06:26:53.648Z,99549.31
2023-03-26T06:28:18.721Z,99549.72
2023-03-26T06:29:31.593Z,99559.78
2023-03-26T06:31:08.070Z,99550.28
2023-03-26T06:32:25.683Z,99549.88
2023-03-26T06:33:48.819Z,99554.81
2023-03-26T06:34:51.509Z,99555.53
2023-03-26T06:35:54.429Z,99557.47
2023-03-26T06:36:56.870Z,99561.00
2023-03-26T06:37:59.744Z,99563.47
2023-03-26T06:39:07.550Z,99558.69
2023-03-26T06:40:13.049Z,99565.72
2023-03-26T06:41:41.389Z,99560.25
2023-03-26T06:43:08.022Z,99555.56
2023-03-26T06:44:38.244Z,99556.94
2023-03-26T06:46:02.129Z,99555.00
2023-03-26T06:47:13.360Z,99551.28
2023-03-26T06:48:33.826Z,99563.31
2023-03-26T06:50:02.255Z,99554.09
2023-03-26T06:51:15.806Z,99555.53
2023-03-26T06:52:56.622Z,99562.00
2023-03-26T06:54:25.226Z,99553.88
2023-03-26T06:55:31.327Z,99563.97
2023-03-26T06:56:41.600Z,99557.72
2023-03-26T06:58:12.078Z,99557.09
2023-03-26T06:59:37.677Z,99555.56
2023-03-26T07:00:58.500Z,99555.13
2023-03-26T07:02:19.719Z,99556.94
2023-03-26T07:03:40.812Z,99553.03
2023-03-26T07:05:10.225Z,99559.69
2023-03-26T07:06:32.092Z,99550.59
2023-03-26T07:08:00.946Z,99551.53
2023-03-26T07:09:21.908Z,99564.97
2023-03-26T07:10:42.613Z,99550.97
2023-03-26T07:11:59.368Z,99549.72
2023-03-26T07:13:01.652Z,99546.88
2023-03-26T07:14:24.828Z,99550.72
2023-03-26T07:15:53.215Z,99556.09
2023-03-26T07:17:13.038Z,99556.00
2023-03-26T07:18:38.114Z,99545.47
2023-03-26T07:19:43.470Z,99540.13
2023-03-26T07:20:46.575Z,99537.94
2023-03-26T07:21:49.649Z,99540.28
2023-03-26T07:23:13.753Z,99542.41
2023-03-26T07:24:42.667Z,99546.88
2023-03-26T07:26:12.916Z,99543.31
2023-03-26T07:28:24.327Z,99541.31
2023-03-26T07:29:45.464Z,99546.50
2023-03-26T07:31:19.775Z,99537.88
2023-03-26T07:32:54.616Z,99549.22
2023-03-26T07:34:40.056Z,99540.78
2023-03-26T07:36:26.574Z,99540.94
2023-03-26T07:38:16.334Z,99544.19
2023-03-26T07:39:48.228Z,99548.81
2023-03-26T07:41:11.172Z,99540.09
2023-03-26T07:42:46.815Z,99539.50
2023-03-26T07:44:13.146Z,99543.50
2023-03-26T07:45:44.208Z,99544.97
2023-03-26T07:47:02.445Z,99544.63
2023-03-26T07:48:21.090Z,99546.97
2023-03-26T07:49:43.385Z,99539.44
2023-03-26T07:50:52.231Z,99536.06
2023-03-26T07:52:21.759Z,99534.56
2023-03-26T07:53:42.921Z,99541.59
2023-03-26T07:55:15.951Z,99539.00
2023-03-26T07:56:42.995Z,99536.16
2023-03-26T07:59:00.919Z,99537.97
2023-03-26T08:00:46.846Z,99536.75
2023-03-26T08:02:02.175Z,99539.88
2023-03-26T08:04:23.165Z,99536.22
2023-03-26T08:05:53.094Z,99524.69
2023-03-26T08:07:14.971Z,99534.78
2023-03-26T08:08:45.934Z,99524.38
2023-03-26T08:10:43.130Z,99526.63
2023-03-26T08:12:09.341Z,99524.44
2023-03-26T08:13:23.867Z,99526.38
2023-03-26T08:14:55.304Z,99524.31
2023-03-26T08:15:58.036Z,99521.94
2023-03-26T08:17:31.352Z,99527.16
2023-03-26T08:18:51.525Z,99524.63
2023-03-26T08:20:02.273Z,99522.84
2023-03-26T08:21:06.246Z,99517.81
2023-03-26T08:22:27.411Z,99525.69
2023-03-26T08:23:38.353Z,99528.34
2023-03-26T08:25:18.118Z,99525.34
2023-03-26T08:26:41.767Z,99516.50
2023-03-26T08:28:05.289Z,99512.94
2023-03-26T08:29:15.318Z,99513.88
2023-03-26T08:30:20.607Z,99524.75
2023-03-26T08:31:35.596Z,99518.34
2023-03-26T08:32:38.694Z,99515.22
2023-03-26T08:33:41.708Z,99514.88
2023-03-26T08:34:46.328Z,99522.09
2023-03-26T08:35:49.805Z,99526.28
2023-03-26T08:36:52.317Z,99512.81
2023-03-26T08:37:55.322Z,99519.63
2023-03-26T08:38:59.573Z,99523.31
2023-03-26T08:40:02.456Z,99522.53
2023-03-26T08:41:39.909Z,99523.72
2023-03-26T08:43:07.265Z,99523.69
2023-03-26T08:44:45.112Z,99520.25
2023-03-26T08:46:14.874Z,99516.75
2023-03-26T08:47:35.605Z,99516.00
2023-03-26T08:49:00.540Z,99523.56
2023-03-26T08:50:30.606Z,99518.38
2023-03-26T08:51:44.676Z,99527.00
2023-03-26T08:53:21.156Z,99521.56
2023-03-26T08:54:42.055Z,99524.72
2023-03-26T08:55:52.811Z,99519.72
2023-03-26T08:57:39.671Z,99519.56
2023-03-26T08:59:03.017Z,99519.34
2023-03-26T09:00:33.607Z,99519.97
2023-03-26T09:01:57.175Z,99523.63
2023-03-26T09:03:17.203Z,99519.09
2023-03-26T09:04:28.289Z,99513.13
2023-03-26T09:05:55.165Z,99512.81
2023-03-26T09:07:07.022Z,99510.31
2023-03-26T09:08:31.166Z,99512.53
2023-03-26T09:09:52.266Z,99512.69
2023-03-26T09:10:55.082Z,99505.19
2023-03-26T09:12:14.868Z,99510.56
2023-03-26T09:13:41.776Z,99511.91
2023-03-26T09:14:59.405Z,99512.09
2023-03-26T09:16:07.656Z,99514.72
2023-03-26T09:17:47.223Z,99514.22
2023-03-26T09:19:02.426Z,99515.56
2023-03-26T09:20:42.212Z,99515.31
2023-03-26T09:21:50.803Z,99512.09
2023-03-26T09:23:10.091Z,99516.38
2023-03-26T09:24:33.185Z,99516.09
2023-03-26T09:25:44.476Z,99501.28
2023-03-26T09:27:14.915Z,99507.19
2023-03-26T09:28:53.938Z,99506.25
2023-03-26T09:30:02.114Z,99504.69
2023-03-26T09:31:39.053Z,99504.41
2023-03-26T09:33:03.662Z,99505.09
2023-03-26T09:34:27.666Z,99503.09
2023-03-26T09:35:42.199Z,99506.13
2023-03-26T09:37:26.780Z,99509.41
2023-03-26T09:38:43.005Z,99510.84
2023-03-26T09:40:13.797Z,99509.22
2023-03-26T09:42:21.071Z,99507.69
2023-03-26T09:44:12.784Z,99500.81
2023-03-26T09:45:22.508Z,99509.13
2023-03-26T09:46:49.636Z,99512.00
2023-03-26T09:48:18.914Z,99511.69
2023-03-26T09:49:39.779Z,99514.66
2023-03-26T09:51:09.133Z,99508.84
2023-03-26T09:52:46.334Z,99506.72
2023-03-26T09:53:59.406Z,99510.25
2023-03-26T09:55:15.220Z,99506.63
2023-03-26T09:56:36.833Z,99503.19
2023-03-26T09:58:03.028Z,99507.78
2023-03-26T09:59:15.459Z,99502.97
2023-03-26T10:00:38.971Z,99510.03
2023-03-26T10:02:04.311Z,99507.00
2023-03-26T10:03:28.877Z,99501.19
2023-03-26T10:05:00.417Z,99498.66
2023-03-26T10:06:22.801Z,99500.38
2023-03-26T10:07:24.930Z,99511.13
2023-03-26T10:08:55.639Z,99502.31
2023-03-26T10:10:12.257Z,99506.16
2023-03-26T10:11:51.295Z,99509.59
2023-03-26T10:13:13.896Z,99508.41
2023-03-26T10:14:32.495Z,99504.06
2023-03-26T10:15:50.730Z,99509.50
2023-03-26T10:17:06.851Z,99500.06
2023-03-26T10:18:27.168Z,99506.44
2023-03-26T10:19:46.415Z,99500.78
2023-03-26T10:21:10.829Z,99497.91
2023-03-26T10:22:25.550Z,99506.06
2023-03-26T10:23:58.188Z,99494.34
2023-03-26T10:25:19.074Z,99497.25
2023-03-26T10:26:29.218Z,99490.63
2023-03-26T10:28:00.998Z,99492.44
2023-03-26T10:29:08.758Z,99485.91
2023-03-26T10:30:25.874Z,99483.81
2023-03-26T10:31:52.308Z,99487.47
2023-03-26T10:33:45.255Z,99485.91
2023-03-26T10:35:23.367Z,99484.16
2023-03-26T10:36:30.271Z,99486.97
2023-03-26T10:37:35.351Z,99479.63
2023-03-26T10:38:37.528Z,99480.38
2023-03-26T10:40:05.962Z,99481.28
2023-03-26T10:41:21.533Z,99482.88
2023-03-26T10:42:53.273Z,99476.00
2023-03-26T10:44:14.736Z,99478.44
2023-03-26T10:45:54.289Z,99478.88
2023-03-26T10:47:18.294Z,99479.81
2023-03-26T10:48:21.351Z,99480.81
2023-03-26T10:49:44.696Z,99474.06
2023-03-26T10:50:54.983Z,99471.94
2023-03-26T10:52:00.995Z,99475.69
2023-03-26T10:53:24.786Z,99468.81
2023-03-26T10:54:59.766Z,99470.31
2023-03-26T10:56:16.600Z,99474.09
2023-03-26T10:57:40.951Z,99479.88
2023-03-26T10:58:49.257Z,99473.78
2023-03-26T10:59:56.059Z,99469.88
2023-03-26T11:01:06.266Z,99478.16
2023-03-26T11:02:29.320Z,99472.72
2023-03-26T11:03:54.315Z,99468.59
2023-03-26T11:04:59.402Z,99469.50
2023-03-26T11:06:07.699Z,99465.22
2023-03-26T11:07:35.346Z,99466.78
2023-03-26T11:09:02.816Z,99457.16
2023-03-26T11:10:17.691Z,99452.63
2023-03-26T11:11:32.888Z,99456.97
2023-03-26T11:12:57.533Z,99456.97
2023-03-26T11:14:31.854Z,99458.38
2023-03-26T11:15:50.320Z,99444.25
2023-03-26T11:17:40.259Z,99448.41
2023-03-26T11:19:10.195Z,99448.66
2023-03-26T11:20:31.256Z,99450.44
2023-03-26T11:21:50.800Z,99446.50
2023-03-26T11:23:20.409Z,99439.50
2023-03-26T11:25:18.210Z,99443.22
2023-03-26T11:26:44.784Z,99436.94
2023-03-26T11:28:02.638Z,99439.69
2023-03-26T11:29:31.522Z,99443.88
2023-03-26T11:30:53.646Z,99439.81
2023-03-26T11:32:11.063Z,99421.16
2023-03-26T11:33:25.873Z,99422.84
2023-03-26T11:34:40.952Z,99426.28
2023-03-26T11:35:50.061Z,99419.84
2023-03-26T11:36:56.724Z,99419.75
2023-03-26T11:38:04.432Z,99421.38
2023-03-26T11:39:13.943Z,99412.75
2023-03-26T11:40:41.602Z,99405.25
2023-03-26T11:41:55.315Z,99410.06
2023-03-26T11:43:07.837Z,99400.88
2023-03-26T11:44:30.616Z,99405.97
2023-03-26T11:45:37.507Z,99401.31
2023-03-26T11:46:44.044Z,99401.47
2023-03-26T11:48:04.077Z,99402.34
2023-03-26T11:49:11.262Z,99393.53
2023-03-26T11:50:28.591Z,99393.84
2023-03-26T11:51:33.837Z,99391.25
2023-03-26T11:52:36.939Z,99391.25
2023-03-26T11:53:39.661Z,99393.28
2023-03-26T11:54:43.386Z,99386.50
2023-03-26T11:55:57.659Z,99382.88
2023-03-26T11:57:24.548Z,99384.38
2023-03-26T11:59:01.196Z,99381.78
2023-03-26T12:00:17.243Z,99372.56
2023-03-26T12:01:31.930Z,99374.25
2023-03-26T12:02:41.656Z,99376.19
2023-03-26T12:03:59.026Z,99377.59
2023-03-26T12:05:18.019Z,99372.91
2023-03-26T12:06:27.285Z,99378.34
2023-03-26T12:07:32.868Z,99375.41
2023-03-26T12:08:39.480Z,99369.13
2023-03-26T12:09:53.693Z,99368.91
2023-03-26T12:11:03.767Z,99371.28
2023-03-26T12:12:06.515Z,99369.91
2023-03-26T12:13:32.492Z,99362.91
2023-03-26T12:14:35.467Z,99360.97
2023-03-26T12:15:43.174Z,99361.13
2023-03-26T12:17:05.847Z,99357.06
2023-03-26T12:18:25.492Z,99354.03
2023-03-26T12:19:33.865Z,99360.25
2023-03-26T12:20:36.877Z,99363.41
2023-03-26T12:21:50.358Z,99366.34
2023-03-26T12:23:00.801Z,99362.44
2023-03-26T12:24:34.052Z,99355.22
2023-03-26T12:25:38.830Z,99360.09
2023-03-26T12:26:44.928Z,99357.56
2023-03-26T12:28:05.079Z,99360.03
2023-03-26T12:29:16.544Z,99359.09
2023-03-26T12:30:20.697Z,99361.06
2023-03-26T12:31:26.438Z,99354.63
2023-03-26T12:32:45.248Z,99358.38
2023-03-26T12:34:13.657Z,99364.06
2023-03-26T12:35:26.923Z,99361.47
2023-03-26T12:36:31.589Z,99356.53
2023-03-26T12:37:38.809Z,99354.69
2023-03-26T12:38:42.464Z,99360.38
2023-03-26T12:40:09.913Z,99354.56
2023-03-26T12:41:08.648Z,99360.78
2023-03-26T12:44:44.588Z,99364.31
2023-03-26T12:44:53.355Z,99359.22
2023-03-26T12:45:27.925Z,99366.41
2023-03-26T12:47:56.096Z,99365.34
2023-03-26T12:48:04.206Z,99356.66
2023-03-26T12:49:08.911Z,99371.38
2023-03-26T12:50:15.546Z,99373.63
2023-03-26T12:51:49.591Z,99362.88
2023-03-26T12:53:07.397Z,99368.16
2023-03-26T12:54:15.350Z,99366.75
2023-03-26T12:55:37.984Z,99370.03
2023-03-26T12:56:49.938Z,99361.19
2023-03-26T12:58:44.033Z,99365.13
2023-03-26T13:00:12.558Z,99358.88
2023-03-26T13:01:42.232Z,99364.28
2023-03-26T13:03:00.150Z,99359.19
2023-03-26T13:04:43.615Z,99358.53
2023-03-26T13:06:26.584Z,99361.94
2023-03-26T13:08:05.135Z,99350.22
2023-03-26T13:09:37.746Z,99348.81
2023-03-26T13:11:09.369Z,99354.72
2023-03-26T13:12:40.978Z,99352.78
2023-03-26T13:13:52.855Z,99344.16
2023-03-26T13:15:06.800Z,99344.91
2023-03-26T13:16:46.497Z,99344.41
2023-03-26T13:18:21.637Z,99340.84
2023-03-26T13:19:27.280Z,99338.81
2023-03-26T13:20:43.386Z,99341.81
2023-03-26T13:21:49.387Z,99335.97
2023-03-26T13:23:08.298Z,99335.28
2023-03-26T13:24:41.777Z,99337.88
2023-03-26T13:25:55.582Z,99335.19
2023-03-26T13:27:18.116Z,99336.41
2023-03-26T13:28:39.371Z,99330.91
2023-03-26T13:30:13.389Z,99324.44
2023-03-26T13:31:29.342Z,99325.84
2023-03-26T13:32:49.673Z,99330.19
2023-03-26T13:34:07.587Z,99329.00
2023-03-26T13:35:12.749Z,99327.25
2023-03-26T13:36:41.620Z,99327.16
2023-03-26T13:38:08.327Z,99328.75
2023-03-26T13:39:26.242Z,99326.72
2023-03-26T13:40:37.633Z,99324.56
2023-03-26T13:41:56.592Z,99324.91
2023-03-26T13:43:18.139Z,99322.88
2023-03-26T13:44:51.258Z,99326.00
2023-03-26T13:46:09.142Z,99325.69
2023-03-26T13:47:17.138Z,99323.75
2023-03-26T13:48:44.790Z,99329.03
2023-03-26T13:49:51.937Z,99325.03
2023-03-26T13:51:05.247Z,99328.34
2023-03-26T13:52:13.290Z,99326.09
2023-03-26T13:53:24.282Z,99330.38
2023-03-26T13:54:52.085Z,99322.06
2023-03-26T13:55:59.884Z,99326.56
2023-03-26T13:57:24.158Z,99318.91
2023-03-26T13:58:43.037Z,99321.63
2023-03-26T13:59:54.629Z,99316.09
2023-03-26T14:01:10.107Z,99312.88
2023-03-26T14:02:23.486Z,99315.13
2023-03-26T14:03:52.508Z,99312.44
2023-03-26T14:05:02.181Z,99305.88
2023-03-26T14:06:11.505Z,99311.69
2023-03-26T14:07:23.694Z,99312.84
2023-03-26T14:08:36.188Z,99312.78
2023-03-26T14:09:51.204Z,99309.75
2023-03-26T14:11:06.336Z,99314.06
2023-03-26T14:12:21.557Z,99319.69
2023-03-26T14:13:36.356Z,99307.09
2023-03-26T14:14:51.132Z,99308.91
2023-03-26T14:16:10.880Z,99312.78
2023-03-26T14:17:28.486Z,99311.28
2023-03-26T14:18:37.904Z,99309.78
2023-03-26T14:20:11.155Z,99309.41
2023-03-26T14:21:25.160Z,99315.44
2023-03-26T14:22:37.454Z,99308.88
2023-03-26T14:24:07.576Z,99308.22
2023-03-26T14:25:27.152Z,99307.16
2023-03-26T14:26:56.065Z,99314.28
2023-03-26T14:28:51.578Z,99304.91
2023-03-26T14:30:18.806Z,99310.19
2023-03-26T14:31:33.175Z,99304.38
2023-03-26T14:32:41.226Z,99304.69
2023-03-26T14:34:11.462Z,99311.34
2023-03-26T14:35:37.833Z,99309.72
2023-03-26T14:37:09.529Z,99304.75
2023-03-26T14:38:29.742Z,99303.91
2023-03-26T14:39:54.123Z,99304.75
2023-03-26T14:41:02.201Z,99303.63
2023-03-26T14:42:23.263Z,99301.59
2023-03-26T14:43:34.609Z,99296.94
2023-03-26T14:45:08.241Z,99300.13